createdAt,value
2019-04-26T00:01:53.840Z,98888.44
2019-04-26T00:05:00.100Z,98888.70
2019-04-26T00:08:05.315Z,98881.63
2019-04-26T00:11:25.835Z,98878.59
2019-04-26T00:15:02.039Z,98880.48
2019-04-26T00:18:08.724Z,98891.94
2019-04-26T00:21:14.065Z,98893.70
2019-04-26T00:24:19.638Z,98891.94
2019-04-26T00:27:24.809Z,98886.41
2019-04-26T00:30:29.948Z,98886.88
2019-04-26T00:33:35.152Z,98877.42
2019-04-26T00:36:40.608Z,98885.80
2019-04-26T00:39:45.737Z,98903.91
2019-04-26T00:42:52.079Z,98919.13
2019-04-26T00:45:58.885Z,98926.84
2019-04-26T00:49:06.079Z,98914.05
2019-04-26T00:52:13.002Z,98907.79
2019-04-26T00:55:19.848Z,98897.78
2019-04-26T00:58:26.577Z,98878.02
2019-04-26T01:01:35.180Z,98878.41
2019-04-26T01:04:40.363Z,98886.81
2019-04-26T01:07:47.166Z,98891.78
2019-04-26T01:10:52.247Z,98899.14
2019-04-26T01:13:57.415Z,98899.14
2019-04-26T01:17:02.538Z,98906.94
2019-04-26T01:20:08.373Z,98906.04
2019-04-26T01:23:17.423Z,98913.96
2019-04-26T01:26:30.699Z,98910.95
2019-04-26T01:29:37.518Z,98901.84
2019-04-26T01:32:44.537Z,98919.70
2019-04-26T01:35:50.595Z,98910.64
2019-04-26T01:38:58.877Z,98910.75
2019-04-26T01:42:11.652Z,98906.05
2019-04-26T01:45:45.542Z,98919.52
2019-04-26T01:48:57.070Z,98935.92
2019-04-26T01:52:09.174Z,98953.36
2019-04-26T01:55:14.465Z,98939.86
2019-04-26T01:58:21.921Z,98963.01
2019-04-26T02:01:49.709Z,98980.37
2019-04-26T02:04:57.517Z,98996.09
2019-04-26T02:08:02.694Z,98998.91
2019-04-26T02:11:07.833Z,98995.97
2019-04-26T02:14:13.561Z,98982.65
2019-04-26T02:17:18.666Z,98977.86
2019-04-26T02:21:13.737Z,98982.13
2019-04-26T02:24:50.345Z,98983.72
2019-04-26T02:27:55.470Z,98993.03
2019-04-26T02:31:00.778Z,99008.73
2019-04-26T02:34:07.911Z,98987.00
2019-04-26T02:37:15.111Z,98993.55
2019-04-26T02:40:20.398Z,98993.08
2019-04-26T02:43:29.636Z,98992.95
2019-04-26T02:46:50.100Z,98990.07
2019-04-26T02:49:59.374Z,98988.57
2019-04-26T02:53:35.351Z,98968.78
2019-04-26T02:56:42.963Z,98970.88
2019-04-26T02:59:51.074Z,98981.59
2019-04-26T03:03:02.243Z,98994.86
2019-04-26T03:06:07.610Z,98994.66
2019-04-26T03:09:15.142Z,99003.27
2019-04-26T03:12:24.157Z,99030.59
2019-04-26T03:15:56.750Z,99026.47
2019-04-26T03:19:26.909Z,99012.82
2019-04-26T03:22:43.243Z,99012.87
2019-04-26T03:26:19.702Z,99012.60
2019-04-26T03:29:38.975Z,99010.13
2019-04-26T03:33:20.521Z,99011.76
2019-04-26T03:37:32.575Z,99017.41
2019-04-26T03:41:02.850Z,99030.67
2019-04-26T03:44:31.245Z,99041.31
2019-04-26T03:47:43.742Z,99035.24
2019-04-26T03:50:56.982Z,99031.61
2019-04-26T03:54:10.697Z,99014.31
2019-04-26T03:57:30.720Z,99011.81
2019-04-26T04:00:47.819Z,99012.94
2019-04-26T04:03:58.963Z,99007.65
2019-04-26T04:07:07.293Z,99011.59
2019-04-26T04:10:19.304Z,99020.78
2019-04-26T04:13:55.494Z,98993.14
2019-04-26T04:17:28.001Z,99004.45
2019-04-26T04:21:34.077Z,99011.78
2019-04-26T04:24:50.796Z,99012.81
2019-04-26T04:28:06.388Z,99021.60
2019-04-26T04:31:19.339Z,99007.00
2019-04-26T04:34:37.660Z,98996.13
2019-04-26T04:38:05.535Z,99002.87
2019-04-26T04:41:17.487Z,99007.59
2019-04-26T04:45:22.370Z,99018.89
2019-04-26T04:48:48.454Z,98999.78
2019-04-26T04:52:24.291Z,99004.92
2019-04-26T04:55:42.931Z,99009.98
2019-04-26T04:58:53.446Z,99016.31
2019-04-26T05:02:32.044Z,99014.33
2019-04-26T05:06:07.349Z,99002.36
2019-04-26T05:09:10.449Z,99007.00
2019-04-26T05:12:23.952Z,99014.33
2019-04-26T05:15:54.917Z,99018.30
2019-04-26T05:19:35.983Z,99028.89
2019-04-26T05:23:28.334Z,99040.34
2019-04-26T05:27:22.492Z,99029.95
2019-04-26T05:31:12.357Z,99035.94
2019-04-26T05:34:35.285Z,99032.15
2019-04-26T05:38:01.527Z,99053.92
2019-04-26T05:41:35.746Z,99045.09
2019-04-26T05:45:30.058Z,99051.76
2019-04-26T05:49:25.220Z,99055.45
2019-04-26T05:53:15.183Z,99067.28
2019-04-26T05:56:46.352Z,99064.48
2019-04-26T06:00:32.857Z,99074.16
2019-04-26T06:04:15.655Z,99076.61
2019-04-26T06:07:37.927Z,99079.81
2019-04-26T06:10:59.971Z,99091.54
2019-04-26T06:14:48.824Z,99115.26
2019-04-26T06:18:14.292Z,99136.84
2019-04-26T06:21:44.193Z,99148.55
2019-04-26T06:25:20.255Z,99160.29
2019-04-26T06:28:37.858Z,99166.11
2019-04-26T06:32:04.707Z,99167.67
2019-04-26T06:35:16.961Z,99191.26
2019-04-26T06:39:12.040Z,99187.10
2019-04-26T06:43:01.278Z,99174.09
2019-04-26T06:47:02.634Z,99182.80
2019-04-26T06:50:20.148Z,99157.44
2019-04-26T06:54:15.539Z,99156.99
2019-04-26T06:57:59.966Z,99173.80
2019-04-26T07:01:24.750Z,99183.26
2019-04-26T07:05:08.965Z,99182.89
2019-04-26T07:08:30.039Z,99185.79
2019-04-26T07:12:44.534Z,99174.81
2019-04-26T07:16:22.373Z,99183.45
2019-04-26T07:20:02.483Z,99199.39
2019-04-26T07:24:01.192Z,99197.54
2019-04-26T07:27:33.942Z,99196.39
2019-04-26T07:30:50.222Z,99195.69
2019-04-26T07:34:36.176Z,99199.78
2019-04-26T07:38:46.333Z,99206.14
2019-04-26T07:42:45.745Z,99209.16
2019-04-26T07:46:22.290Z,99206.34
2019-04-26T07:50:09.887Z,99215.31
2019-04-26T07:53:46.608Z,99214.95
2019-04-26T07:57:39.037Z,99226.30
2019-04-26T08:00:53.571Z,99232.91
2019-04-26T08:04:07.334Z,99241.34
2019-04-26T08:07:19.431Z,99233.52
2019-04-26T08:10:27.501Z,99244.27
2019-04-26T08:13:35.598Z,99246.97
2019-04-26T08:17:06.563Z,99244.11
2019-04-26T08:20:34.668Z,99239.65
2019-04-26T08:24:01.744Z,99235.35
2019-04-26T08:27:22.557Z,99240.59
2019-04-26T08:30:23.799Z,99241.55
2019-04-26T08:33:36.525Z,99256.05
2019-04-26T08:36:50.487Z,99259.72
2019-04-26T08:39:57.722Z,99276.56
2019-04-26T08:43:30.844Z,99263.82
2019-04-26T08:46:47.587Z,99258.27
2019-04-26T08:50:02.543Z,99263.72
2019-04-26T08:53:09.402Z,99263.09
2019-04-26T08:56:17.508Z,99267.07
2019-04-26T08:59:26.723Z,99273.54
2019-04-26T09:02:55.151Z,99279.17
2019-04-26T09:06:34.648Z,99278.57
2019-04-26T09:09:42.971Z,99294.61
2019-04-26T09:12:51.235Z,99313.91
2019-04-26T09:16:14.632Z,99309.58
2019-04-26T09:19:19.871Z,99297.95
2019-04-26T09:22:40.602Z,99322.26
2019-04-26T09:25:58.739Z,99331.53
2019-04-26T09:29:30.232Z,99337.08
2019-04-26T09:32:41.609Z,99352.50
2019-04-26T09:35:46.877Z,99340.03
2019-04-26T09:38:52.074Z,99347.26
2019-04-26T09:42:01.216Z,99355.44
2019-04-26T09:45:27.539Z,99363.94
2019-04-26T09:48:51.900Z,99361.82
2019-04-26T09:51:57.310Z,99350.64
2019-04-26T09:55:02.476Z,99345.70
2019-04-26T09:58:08.704Z,99348.56
2019-04-26T10:01:14.113Z,99350.31
2019-04-26T10:04:19.270Z,99338.69
2019-04-26T10:07:24.491Z,99342.41
2019-04-26T10:10:35.174Z,99346.59
2019-04-26T10:13:43.578Z,99351.19
2019-04-26T10:17:03.600Z,99351.12
2019-04-26T10:20:08.837Z,99361.48
2019-04-26T10:23:15.040Z,99361.92
2019-04-26T10:26:27.740Z,99366.59
2019-04-26T10:29:30.181Z,99357.59
2019-04-26T10:32:35.465Z,99356.97
2019-04-26T10:35:40.707Z,99369.00
2019-04-26T10:38:45.994Z,99367.92
2019-04-26T10:41:51.106Z,99355.58
2019-04-26T10:44:56.300Z,99366.09
2019-04-26T10:48:01.467Z,99355.20
2019-04-26T10:51:07.277Z,99352.81
2019-04-26T10:54:18.785Z,99356.45
2019-04-26T10:57:36.887Z,99343.06
2019-04-26T11:00:43.385Z,99344.48
2019-04-26T11:03:48.576Z,99365.26
2019-04-26T11:06:53.688Z,99377.05
2019-04-26T11:09:58.990Z,99373.12
2019-04-26T11:13:04.537Z,99377.09
2019-04-26T11:16:09.742Z,99376.23
2019-04-26T11:19:14.960Z,99382.97
2019-04-26T11:22:29.022Z,99394.23
2019-04-26T11:25:28.235Z,99389.38
2019-04-26T11:28:33.979Z,99378.55
2019-04-26T11:31:39.286Z,99382.40
2019-04-26T11:34:44.412Z,99382.74
2019-04-26T11:37:55.097Z,99372.48
2019-04-26T11:41:05.913Z,99360.44
2019-04-26T11:44:04.553Z,99372.31
2019-04-26T11:47:09.767Z,99371.62
2019-04-26T11:50:16.086Z,99373.80
2019-04-26T11:53:21.711Z,99381.92
2019-04-26T11:56:26.877Z,99377.20
2019-04-26T11:59:32.054Z,99376.41
2019-04-26T12:02:38.565Z,99373.36
2019-04-26T12:06:06.311Z,99371.30
2019-04-26T12:09:22.795Z,99372.06
2019-04-26T12:12:27.964Z,99368.08
2019-04-26T12:15:33.134Z,99380.38
2019-04-26T12:18:40.186Z,99391.81
2019-04-26T12:21:45.311Z,99398.36
2019-04-26T12:24:50.590Z,99412.27
2019-04-26T12:27:55.946Z,99405.18
2019-04-26T12:31:01.163Z,99391.75
2019-04-26T12:34:07.522Z,99356.14
2019-04-26T12:37:19.776Z,99383.15
2019-04-26T12:40:19.683Z,99406.05
2019-04-26T12:43:26.178Z,99409.09
2019-04-26T12:46:37.447Z,99411.38
2019-04-26T12:49:42.832Z,99409.16
2019-04-26T12:52:51.404Z,99401.93
2019-04-26T12:55:58.166Z,99413.20
2019-04-26T12:59:01.789Z,99427.64
2019-04-26T13:02:06.996Z,99434.05
2019-04-26T13:05:14.533Z,99432.59
2019-04-26T13:08:19.445Z,99435.32
2019-04-26T13:11:49.083Z,99429.92
2019-04-26T13:15:16.824Z,99438.59
2019-04-26T13:18:22.269Z,99449.09
2019-04-26T13:21:27.479Z,99456.98
2019-04-26T13:24:35.469Z,99443.84
2019-04-26T13:27:41.646Z,99438.91
2019-04-26T13:30:46.429Z,99427.22
2019-04-26T13:33:51.557Z,99437.67
2019-04-26T13:36:59.136Z,99436.85
2019-04-26T13:40:03.482Z,99437.77
2019-04-26T13:43:09.167Z,99432.88
2019-04-26T13:46:45.800Z,99443.88
2019-04-26T13:50:02.573Z,99438.73
2019-04-26T13:53:08.299Z,99437.81
2019-04-26T13:56:14.340Z,99424.21
2019-04-26T13:59:19.449Z,99436.03
2019-04-26T14:02:25.653Z,99426.84
2019-04-26T14:05:30.840Z,99427.53
2019-04-26T14:08:36.004Z,99417.86
2019-04-26T14:11:41.297Z,99436.48
2019-04-26T14:14:46.530Z,99441.11
2019-04-26T14:17:51.666Z,99455.52
2019-04-26T14:20:59.046Z,99455.97
2019-04-26T14:24:25.819Z,99458.83
2019-04-26T14:27:53.174Z,99468.66
2019-04-26T14:30:58.378Z,99478.50
2019-04-26T14:34:05.394Z,99481.91
2019-04-26T14:37:11.264Z,99483.80
2019-04-26T14:40:17.909Z,99483.98
2019-04-26T14:43:23.557Z,99484.61
2019-04-26T14:46:28.819Z,99486.84
2019-04-26T14:49:39.219Z,99491.37
2019-04-26T14:52:40.990Z,99495.41
2019-04-26T14:55:46.122Z,99493.94
2019-04-26T14:58:52.262Z,99501.58
2019-04-26T15:02:19.341Z,99497.08
2019-04-26T15:05:46.553Z,99501.03
2019-04-26T15:08:53.099Z,99499.91
2019-04-26T15:12:01.223Z,99507.39
2019-04-26T15:15:05.736Z,99516.27
2019-04-26T15:18:12.304Z,99516.09
2019-04-26T15:21:17.502Z,99531.00
2019-04-26T15:24:23.040Z,99534.77
2019-04-26T15:27:32.253Z,99528.45
2019-04-26T15:30:43.134Z,99526.13
2019-04-26T15:33:48.567Z,99525.17
2019-04-26T15:36:50.148Z,99527.79
2019-04-26T15:40:13.385Z,99521.05
2019-04-26T15:43:42.825Z,99515.13
2019-04-26T15:47:16.601Z,99523.36
2019-04-26T15:50:50.234Z,99509.74
2019-04-26T15:53:49.771Z,99500.88
2019-04-26T15:56:56.120Z,99486.36
2019-04-26T16:00:03.873Z,99492.85
2019-04-26T16:03:10.112Z,99497.55
2019-04-26T16:06:15.287Z,99500.03
2019-04-26T16:09:22.944Z,99511.28
2019-04-26T16:12:28.450Z,99518.30
2019-04-26T16:15:33.952Z,99522.59
2019-04-26T16:18:39.147Z,99531.95
2019-04-26T16:21:44.314Z,99543.19
2019-04-26T16:24:51.163Z,99542.05
2019-04-26T16:28:14.297Z,99547.93
2019-04-26T16:31:42.194Z,99554.82
2019-04-26T16:34:48.789Z,99569.73
2019-04-26T16:37:54.133Z,99565.55
2019-04-26T16:40:59.299Z,99563.48
2019-04-26T16:44:04.590Z,99563.00
2019-04-26T16:47:09.970Z,99564.66
2019-04-26T16:50:23.246Z,99556.48
2019-04-26T16:53:37.696Z,99554.55
2019-04-26T16:56:29.824Z,99550.58
2019-04-26T16:59:34.989Z,99552.06
2019-04-26T17:02:40.200Z,99548.78
2019-04-26T17:05:48.393Z,99548.41
2019-04-26T17:08:58.628Z,99540.15
2019-04-26T17:11:59.360Z,99536.63
2019-04-26T17:15:04.964Z,99540.12
2019-04-26T17:18:10.170Z,99540.44
2019-04-26T17:21:17.521Z,99541.42
2019-04-26T17:24:46.231Z,99538.08
2019-04-26T17:27:48.796Z,99541.24
2019-04-26T17:30:54.058Z,99532.39
2019-04-26T17:33:59.250Z,99536.00
2019-04-26T17:37:11.707Z,99529.06
2019-04-26T17:40:11.507Z,99528.83
2019-04-26T17:43:16.659Z,99537.55
2019-04-26T17:46:21.882Z,99549.83
2019-04-26T17:49:28.915Z,99563.45
2019-04-26T17:52:36.190Z,99566.36
2019-04-26T17:55:41.487Z,99574.66
2019-04-26T17:58:52.364Z,99584.47
2019-04-26T18:02:00.837Z,99590.67
2019-04-26T18:05:03.367Z,99585.12
2019-04-26T18:08:31.578Z,99573.70
2019-04-26T18:11:19.681Z,99572.80
2019-04-26T18:14:22.062Z,99575.88
2019-04-26T18:17:50.187Z,99571.17
2019-04-26T18:21:05.725Z,99567.26
2019-04-26T18:24:10.884Z,99563.58
2019-04-26T18:27:16.100Z,99572.44
2019-04-26T18:30:21.323Z,99576.30
2019-04-26T18:33:26.531Z,99586.41
2019-04-26T18:36:33.275Z,99589.55
2019-04-26T18:39:38.537Z,99598.36
2019-04-26T18:42:43.731Z,99597.10
2019-04-26T18:45:50.516Z,99599.47
2019-04-26T18:48:55.717Z,99601.41
2019-04-26T18:52:00.847Z,99613.80
2019-04-26T18:55:16.445Z,99618.69
2019-04-26T18:58:21.587Z,99616.42
2019-04-26T19:01:26.767Z,99631.59
2019-04-26T19:04:33.487Z,99630.86
2019-04-26T19:07:38.982Z,99633.23
2019-04-26T19:10:44.256Z,99636.88
2019-04-26T19:14:06.316Z,99635.86
2019-04-26T19:17:25.989Z,99638.14
2019-04-26T19:20:34.994Z,99629.88
2019-04-26T19:23:41.547Z,99623.77
2019-04-26T19:26:50.022Z,99623.67
2019-04-26T19:29:54.648Z,99625.36
2019-04-26T19:32:59.844Z,99627.34
2019-04-26T19:36:05.212Z,99621.28
2019-04-26T19:39:12.015Z,99627.09
2019-04-26T19:42:19.117Z,99622.53
2019-04-26T19:45:39.515Z,99609.50
2019-04-26T19:49:03.440Z,99606.14
2019-04-26T19:52:18.566Z,99602.00
2019-04-26T19:55:47.436Z,99606.81
2019-04-26T19:58:56.963Z,99599.00
2019-04-26T20:01:57.756Z,99606.44
2019-04-26T20:05:06.681Z,99610.44
2019-04-26T20:08:11.945Z,99611.69
2019-04-26T20:11:18.718Z,99609.42
2019-04-26T20:14:39.405Z,99602.36
2019-04-26T20:17:31.357Z,99592.45
2019-04-26T20:20:36.576Z,99584.63
2019-04-26T20:23:43.821Z,99578.27
2019-04-26T20:26:48.869Z,99586.99
2019-04-26T20:29:55.020Z,99586.08
2019-04-26T20:33:01.774Z,99588.79
2019-04-26T20:36:07.067Z,99591.09
2019-04-26T20:39:12.582Z,99593.55
2019-04-26T20:42:17.810Z,99593.88
2019-04-26T20:45:22.977Z,99596.42
2019-04-26T20:48:32.944Z,99604.69
2019-04-26T20:51:36.005Z,99615.13
2019-04-26T20:54:41.701Z,99620.00
2019-04-26T20:57:48.037Z,99628.35
2019-04-26T21:00:54.505Z,99635.22
2019-04-26T21:03:59.937Z,99636.68
2019-04-26T21:07:06.839Z,99646.30
2019-04-26T21:10:15.217Z,99641.41
2019-04-26T21:13:18.973Z,99632.20
2019-04-26T21:16:24.309Z,99628.16
2019-04-26T21:19:32.727Z,99625.48
2019-04-26T21:22:36.404Z,99629.44
2019-04-26T21:25:53.577Z,99639.77
2019-04-26T21:29:20.173Z,99644.73
2019-04-26T21:32:33.231Z,99645.02
2019-04-26T21:35:44.514Z,99647.64
2019-04-26T21:39:11.516Z,99650.52
2019-04-26T21:42:17.291Z,99655.27
2019-04-26T21:45:28.422Z,99668.63
2019-04-26T21:48:32.757Z,99658.25
2019-04-26T21:51:39.190Z,99648.34
2019-04-26T21:54:44.499Z,99653.84
2019-04-26T21:57:49.689Z,99648.97
2019-04-26T22:01:15.680Z,99654.44
2019-04-26T22:04:21.025Z,99655.27
2019-04-26T22:07:26.294Z,99648.13
2019-04-26T22:10:44.619Z,99643.57
2019-04-26T22:13:59.149Z,99639.83
2019-04-26T22:17:29.107Z,99636.84
2019-04-26T22:20:56.072Z,99635.28
2019-04-26T22:24:19.334Z,99624.84
2019-04-26T22:27:25.374Z,99621.63
2019-04-26T22:30:30.783Z,99622.63
2019-04-26T22:33:36.058Z,99630.46
2019-04-26T22:36:41.252Z,99643.02
2019-04-26T22:39:46.446Z,99646.98
2019-04-26T22:42:55.834Z,99653.19
2019-04-26T22:46:27.018Z,99656.17
2019-04-26T22:49:30.090Z,99661.97
2019-04-26T22:52:35.295Z,99663.94
2019-04-26T22:55:40.580Z,99669.12
2019-04-26T22:58:45.806Z,99669.62
2019-04-26T23:01:53.623Z,99664.14
2019-04-26T23:05:00.569Z,99660.41
2019-04-26T23:08:07.139Z,99646.55
2019-04-26T23:11:13.451Z,99647.83
2019-04-26T23:14:40.753Z,99649.48
2019-04-26T23:17:57.879Z,99657.55
2019-04-26T23:21:12.040Z,99652.28
2019-04-26T23:24:18.952Z,99660.42
2019-04-26T23:27:24.340Z,99653.33
2019-04-26T23:30:31.715Z,99651.71
2019-04-26T23:33:37.574Z,99651.91
2019-04-26T23:36:43.702Z,99652.34
2019-04-26T23:39:50.978Z,99644.27
2019-04-26T23:42:55.818Z,99639.58
2019-04-26T23:46:01.209Z,99629.90
2019-04-26T23:49:06.390Z,99632.27
2019-04-26T23:52:14.554Z,99632.56
2019-04-26T23:55:18.581Z,99629.84
2019-04-26T23:58:23.701Z,99638.88
